sensor_id;sensor_type;location;lat;lon;timestamp;P1;durP1;ratioP1;P2;durP2;ratioP2
69434;SDS011;56625;54.322;18.582;2023-07-22T00:02:06;9.20;;;3.20;;
69434;SDS011;56625;54.322;18.582;2023-07-22T00:04:34;9.30;;;3.20;;
69434;SDS011;56625;54.322;18.582;2023-07-22T00:07:02;9.10;;;3.20;;
69434;SDS011;56625;54.322;18.582;2023-07-22T00:09:32;7.40;;;2.80;;
69434;SDS011;56625;54.322;18.582;2023-07-22T00:12:04;7.60;;;2.70;;
69434;SDS011;56625;54.322;18.582;2023-07-22T00:14:34;8.80;;;2.90;;
69434;SDS011;56625;54.322;18.582;2023-07-22T00:17:07;7.10;;;2.50;;
69434;SDS011;56625;54.322;18.582;2023-07-22T00:19:35;6.50;;;2.50;;
69434;SDS011;56625;54.322;18.582;2023-07-22T00:22:04;9.30;;;2.80;;
69434;SDS011;56625;54.322;18.582;2023-07-22T00:24:32;7.10;;;2.40;;
69434;SDS011;56625;54.322;18.582;2023-07-22T00:27:00;7.20;;;2.50;;
69434;SDS011;56625;54.322;18.582;2023-07-22T00:29:28;7.30;;;2.40;;
69434;SDS011;56625;54.322;18.582;2023-07-22T00:31:55;7.10;;;2.20;;
69434;SDS011;56625;54.322;18.582;2023-07-22T00:34:23;6.40;;;2.40;;
69434;SDS011;56625;54.322;18.582;2023-07-22T00:36:51;7.90;;;2.20;;
69434;SDS011;56625;54.322;18.582;2023-07-22T00:39:19;7.50;;;2.20;;
69434;SDS011;56625;54.322;18.582;2023-07-22T00:41:48;6.60;;;2.10;;
69434;SDS011;56625;54.322;18.582;2023-07-22T00:44:16;6.20;;;1.90;;
69434;SDS011;56625;54.322;18.582;2023-07-22T00:46:44;6.60;;;2.10;;
69434;SDS011;56625;54.322;18.582;2023-07-22T00:49:14;6.00;;;2.20;;
69434;SDS011;56625;54.322;18.582;2023-07-22T00:51:43;6.60;;;2.70;;
69434;SDS011;56625;54.322;18.582;2023-07-22T00:54:11;6.90;;;2.10;;
69434;SDS011;56625;54.322;18.582;2023-07-22T00:56:40;6.90;;;2.10;;
69434;SDS011;56625;54.322;18.582;2023-07-22T00:59:09;6.80;;;2.30;;
69434;SDS011;56625;54.322;18.582;2023-07-22T01:01:37;5.50;;;2.30;;
69434;SDS011;56625;54.322;18.582;2023-07-22T01:04:05;8.10;;;2.20;;
69434;SDS011;56625;54.322;18.582;2023-07-22T01:06:35;7.30;;;2.30;;
69434;SDS011;56625;54.322;18.582;2023-07-22T01:09:05;6.70;;;2.30;;
69434;SDS011;56625;54.322;18.582;2023-07-22T01:11:35;8.10;;;2.10;;
69434;SDS011;56625;54.322;18.582;2023-07-22T01:14:03;6.90;;;2.50;;
69434;SDS011;56625;54.322;18.582;2023-07-22T01:16:31;7.50;;;2.30;;
69434;SDS011;56625;54.322;18.582;2023-07-22T01:18:59;7.30;;;2.50;;
69434;SDS011;56625;54.322;18.582;2023-07-22T01:21:28;7.40;;;2.70;;
69434;SDS011;56625;54.322;18.582;2023-07-22T01:23:57;6.90;;;2.20;;
69434;SDS011;56625;54.322;18.582;2023-07-22T01:26:26;6.20;;;2.50;;
69434;SDS011;56625;54.322;18.582;2023-07-22T01:29:05;6.80;;;2.10;;
69434;SDS011;56625;54.322;18.582;2023-07-22T01:31:34;6.80;;;2.20;;
69434;SDS011;56625;54.322;18.582;2023-07-22T01:34:03;8.20;;;2.50;;
69434;SDS011;56625;54.322;18.582;2023-07-22T01:36:31;6.90;;;2.20;;
69434;SDS011;56625;54.322;18.582;2023-07-22T01:38:59;7.70;;;2.50;;
69434;SDS011;56625;54.322;18.582;2023-07-22T01:41:28;8.00;;;2.40;;
69434;SDS011;56625;54.322;18.582;2023-07-22T01:43:56;7.00;;;2.10;;
69434;SDS011;56625;54.322;18.582;2023-07-22T01:46:24;6.90;;;2.30;;
69434;SDS011;56625;54.322;18.582;2023-07-22T01:48:52;7.00;;;2.20;;
69434;SDS011;56625;54.322;18.582;2023-07-22T01:51:20;6.70;;;2.40;;
69434;SDS011;56625;54.322;18.582;2023-07-22T01:53:48;5.90;;;2.50;;
69434;SDS011;56625;54.322;18.582;2023-07-22T01:56:17;6.70;;;2.20;;
69434;SDS011;56625;54.322;18.582;2023-07-22T01:58:44;6.00;;;2.30;;
69434;SDS011;56625;54.322;18.582;2023-07-22T02:01:13;7.10;;;2.20;;
69434;SDS011;56625;54.322;18.582;2023-07-22T02:03:43;7.20;;;2.00;;
69434;SDS011;56625;54.322;18.582;2023-07-22T02:06:12;6.10;;;2.10;;
69434;SDS011;56625;54.322;18.582;2023-07-22T02:08:40;6.50;;;2.20;;
69434;SDS011;56625;54.322;18.582;2023-07-22T02:11:09;5.50;;;1.90;;
69434;SDS011;56625;54.322;18.582;2023-07-22T02:13:37;6.70;;;2.30;;
69434;SDS011;56625;54.322;18.582;2023-07-22T02:16:05;6.50;;;2.30;;
69434;SDS011;56625;54.322;18.582;2023-07-22T02:18:33;7.50;;;2.70;;
69434;SDS011;56625;54.322;18.582;2023-07-22T02:21:01;6.40;;;2.30;;
69434;SDS011;56625;54.322;18.582;2023-07-22T02:23:29;6.00;;;2.40;;
69434;SDS011;56625;54.322;18.582;2023-07-22T02:25:57;6.10;;;2.40;;
69434;SDS011;56625;54.322;18.582;2023-07-22T02:28:25;6.90;;;2.50;;
69434;SDS011;56625;54.322;18.582;2023-07-22T02:30:53;6.30;;;2.40;;
69434;SDS011;56625;54.322;18.582;2023-07-22T02:33:21;7.10;;;2.50;;
69434;SDS011;56625;54.322;18.582;2023-07-22T02:35:49;7.30;;;2.50;;
69434;SDS011;56625;54.322;18.582;2023-07-22T02:38:17;6.90;;;2.60;;
69434;SDS011;56625;54.322;18.582;2023-07-22T02:40:45;6.30;;;2.30;;
69434;SDS011;56625;54.322;18.582;2023-07-22T02:43:13;8.70;;;2.50;;
69434;SDS011;56625;54.322;18.582;2023-07-22T02:45:43;6.20;;;2.60;;
69434;SDS011;56625;54.322;18.582;2023-07-22T02:48:12;7.90;;;2.70;;
69434;SDS011;56625;54.322;18.582;2023-07-22T02:50:39;7.30;;;2.50;;
69434;SDS011;56625;54.322;18.582;2023-07-22T02:53:08;6.10;;;2.20;;
69434;SDS011;56625;54.322;18.582;2023-07-22T02:55:36;6.20;;;2.10;;
69434;SDS011;56625;54.322;18.582;2023-07-22T02:58:04;8.70;;;2.50;;
69434;SDS011;56625;54.322;18.582;2023-07-22T03:00:33;7.80;;;2.60;;
69434;SDS011;56625;54.322;18.582;2023-07-22T03:03:01;7.30;;;2.50;;
69434;SDS011;56625;54.322;18.582;2023-07-22T03:05:30;6.60;;;2.30;;
69434;SDS011;56625;54.322;18.582;2023-07-22T03:07:59;6.70;;;2.40;;
69434;SDS011;56625;54.322;18.582;2023-07-22T03:10:27;6.70;;;2.40;;
69434;SDS011;56625;54.322;18.582;2023-07-22T03:12:56;6.20;;;2.30;;
69434;SDS011;56625;54.322;18.582;2023-07-22T03:15:24;7.50;;;2.60;;
69434;SDS011;56625;54.322;18.582;2023-07-22T03:17:56;7.90;;;2.60;;
69434;SDS011;56625;54.322;18.582;2023-07-22T03:20:27;5.90;;;2.20;;
69434;SDS011;56625;54.322;18.582;2023-07-22T03:22:55;6.90;;;2.40;;
69434;SDS011;56625;54.322;18.582;2023-07-22T03:25:23;6.80;;;2.50;;
69434;SDS011;56625;54.322;18.582;2023-07-22T03:27:51;8.30;;;2.60;;
69434;SDS011;56625;54.322;18.582;2023-07-22T03:30:21;8.60;;;3.10;;
69434;SDS011;56625;54.322;18.582;2023-07-22T03:32:50;7.00;;;2.50;;
69434;SDS011;56625;54.322;18.582;2023-07-22T03:35:19;7.50;;;2.20;;
69434;SDS011;56625;54.322;18.582;2023-07-22T03:37:47;7.60;;;2.10;;
69434;SDS011;56625;54.322;18.582;2023-07-22T03:40:15;6.80;;;2.00;;
69434;SDS011;56625;54.322;18.582;2023-07-22T03:42:55;7.10;;;2.10;;
69434;SDS011;56625;54.322;18.582;2023-07-22T03:45:25;7.40;;;2.30;;
69434;SDS011;56625;54.322;18.582;2023-07-22T03:47:57;6.20;;;2.10;;
69434;SDS011;56625;54.322;18.582;2023-07-22T03:50:26;5.70;;;2.00;;
69434;SDS011;56625;54.322;18.582;2023-07-22T03:52:56;5.80;;;2.00;;
69434;SDS011;56625;54.322;18.582;2023-07-22T03:55:24;6.30;;;2.30;;
69434;SDS011;56625;54.322;18.582;2023-07-22T03:57:52;5.90;;;1.90;;
69434;SDS011;56625;54.322;18.582;2023-07-22T04:00:20;4.80;;;1.50;;
69434;SDS011;56625;54.322;18.582;2023-07-22T04:02:49;4.80;;;1.70;;
69434;SDS011;56625;54.322;18.582;2023-07-22T04:05:17;5.10;;;1.40;;
69434;SDS011;56625;54.322;18.582;2023-07-22T04:07:45;4.80;;;1.50;;
69434;SDS011;56625;54.322;18.582;2023-07-22T04:10:13;5.50;;;1.50;;
69434;SDS011;56625;54.322;18.582;2023-07-22T04:12:41;4.40;;;1.40;;
69434;SDS011;56625;54.322;18.582;2023-07-22T04:15:09;5.10;;;1.50;;
69434;SDS011;56625;54.322;18.582;2023-07-22T04:17:38;4.80;;;1.40;;
69434;SDS011;56625;54.322;18.582;2023-07-22T04:20:07;5.10;;;1.40;;
69434;SDS011;56625;54.322;18.582;2023-07-22T04:22:36;5.70;;;1.40;;
69434;SDS011;56625;54.322;18.582;2023-07-22T04:25:05;5.90;;;1.10;;
69434;SDS011;56625;54.322;18.582;2023-07-22T04:27:33;5.20;;;1.10;;
69434;SDS011;56625;54.322;18.582;2023-07-22T04:30:02;4.90;;;1.30;;
69434;SDS011;56625;54.322;18.582;2023-07-22T04:32:30;4.40;;;1.20;;
69434;SDS011;56625;54.322;18.582;2023-07-22T04:34:58;4.50;;;1.20;;
69434;SDS011;56625;54.322;18.582;2023-07-22T04:37:26;4.60;;;1.40;;
69434;SDS011;56625;54.322;18.582;2023-07-22T04:39:55;3.60;;;1.00;;
69434;SDS011;56625;54.322;18.582;2023-07-22T04:42:23;5.10;;;1.20;;
69434;SDS011;56625;54.322;18.582;2023-07-22T04:44:51;3.60;;;1.10;;
69434;SDS011;56625;54.322;18.582;2023-07-22T04:47:18;3.00;;;1.00;;
69434;SDS011;56625;54.322;18.582;2023-07-22T04:49:46;4.90;;;1.30;;
69434;SDS011;56625;54.322;18.582;2023-07-22T04:52:14;4.50;;;1.10;;
69434;SDS011;56625;54.322;18.582;2023-07-22T04:54:42;4.80;;;1.20;;
69434;SDS011;56625;54.322;18.582;2023-07-22T04:57:10;4.40;;;1.10;;
69434;SDS011;56625;54.322;18.582;2023-07-22T04:59:38;4.30;;;1.30;;
69434;SDS011;56625;54.322;18.582;2023-07-22T05:02:06;5.80;;;1.50;;
69434;SDS011;56625;54.322;18.582;2023-07-22T05:04:34;8.00;;;2.20;;
69434;SDS011;56625;54.322;18.582;2023-07-22T05:07:02;5.10;;;1.50;;
69434;SDS011;56625;54.322;18.582;2023-07-22T05:09:30;5.00;;;1.50;;
69434;SDS011;56625;54.322;18.582;2023-07-22T05:11:58;4.40;;;1.50;;
69434;SDS011;56625;54.322;18.582;2023-07-22T05:14:26;5.00;;;1.50;;
69434;SDS011;56625;54.322;18.582;2023-07-22T05:16:54;6.00;;;1.40;;
69434;SDS011;56625;54.322;18.582;2023-07-22T05:19:22;5.00;;;1.40;;
69434;SDS011;56625;54.322;18.582;2023-07-22T05:21:50;5.90;;;1.60;;
69434;SDS011;56625;54.322;18.582;2023-07-22T05:24:18;5.00;;;1.40;;
69434;SDS011;56625;54.322;18.582;2023-07-22T05:26:46;7.10;;;2.10;;
69434;SDS011;56625;54.322;18.582;2023-07-22T05:29:33;6.90;;;1.90;;
69434;SDS011;56625;54.322;18.582;2023-07-22T05:32:01;7.40;;;1.70;;
69434;SDS011;56625;54.322;18.582;2023-07-22T05:34:29;5.20;;;1.40;;
69434;SDS011;56625;54.322;18.582;2023-07-22T05:36:57;7.60;;;1.80;;
69434;SDS011;56625;54.322;18.582;2023-07-22T05:39:25;4.70;;;1.40;;
69434;SDS011;56625;54.322;18.582;2023-07-22T05:41:53;5.50;;;1.50;;
69434;SDS011;56625;54.322;18.582;2023-07-22T05:44:21;4.10;;;1.40;;
69434;SDS011;56625;54.322;18.582;2023-07-22T05:46:49;5.20;;;1.50;;
69434;SDS011;56625;54.322;18.582;2023-07-22T05:49:17;4.50;;;1.50;;
69434;SDS011;56625;54.322;18.582;2023-07-22T05:51:45;5.00;;;1.60;;
69434;SDS011;56625;54.322;18.582;2023-07-22T05:54:13;4.30;;;1.40;;
69434;SDS011;56625;54.322;18.582;2023-07-22T05:56:42;4.90;;;1.40;;
69434;SDS011;56625;54.322;18.582;2023-07-22T05:59:09;4.70;;;1.70;;
69434;SDS011;56625;54.322;18.582;2023-07-22T06:01:37;4.70;;;1.80;;
69434;SDS011;56625;54.322;18.582;2023-07-22T06:04:06;4.70;;;1.60;;
69434;SDS011;56625;54.322;18.582;2023-07-22T06:06:35;5.00;;;1.40;;
69434;SDS011;56625;54.322;18.582;2023-07-22T06:09:03;6.50;;;1.70;;
69434;SDS011;56625;54.322;18.582;2023-07-22T06:11:31;5.90;;;1.80;;
69434;SDS011;56625;54.322;18.582;2023-07-22T06:13:59;4.30;;;1.50;;
69434;SDS011;56625;54.322;18.582;2023-07-22T06:16:26;4.00;;;1.40;;
69434;SDS011;56625;54.322;18.582;2023-07-22T06:18:55;4.90;;;1.50;;
69434;SDS011;56625;54.322;18.582;2023-07-22T06:21:23;5.80;;;1.90;;
69434;SDS011;56625;54.322;18.582;2023-07-22T06:23:50;6.20;;;2.10;;
69434;SDS011;56625;54.322;18.582;2023-07-22T06:26:19;4.20;;;1.40;;
69434;SDS011;56625;54.322;18.582;2023-07-22T06:28:50;5.70;;;1.60;;
69434;SDS011;56625;54.322;18.582;2023-07-22T06:31:18;5.20;;;1.70;;
69434;SDS011;56625;54.322;18.582;2023-07-22T06:33:46;5.80;;;2.20;;
69434;SDS011;56625;54.322;18.582;2023-07-22T06:36:14;7.10;;;2.00;;
69434;SDS011;56625;54.322;18.582;2023-07-22T06:38:42;5.10;;;1.60;;
69434;SDS011;56625;54.322;18.582;2023-07-22T06:41:09;6.40;;;1.80;;
69434;SDS011;56625;54.322;18.582;2023-07-22T06:43:37;8.80;;;2.70;;
69434;SDS011;56625;54.322;18.582;2023-07-22T06:46:05;4.60;;;1.80;;
69434;SDS011;56625;54.322;18.582;2023-07-22T06:48:33;5.20;;;1.90;;
69434;SDS011;56625;54.322;18.582;2023-07-22T06:51:01;6.20;;;1.70;;
69434;SDS011;56625;54.322;18.582;2023-07-22T06:53:29;10.70;;;2.30;;
69434;SDS011;56625;54.322;18.582;2023-07-22T06:55:58;6.90;;;1.90;;
69434;SDS011;56625;54.322;18.582;2023-07-22T06:58:26;5.10;;;1.60;;
69434;SDS011;56625;54.322;18.582;2023-07-22T07:00:55;6.60;;;2.30;;
69434;SDS011;56625;54.322;18.582;2023-07-22T07:03:23;7.60;;;2.30;;
69434;SDS011;56625;54.322;18.582;2023-07-22T07:05:55;5.70;;;1.90;;
69434;SDS011;56625;54.322;18.582;2023-07-22T07:08:24;5.30;;;1.80;;
69434;SDS011;56625;54.322;18.582;2023-07-22T07:10:52;5.80;;;2.10;;
69434;SDS011;56625;54.322;18.582;2023-07-22T07:13:20;5.80;;;2.00;;
69434;SDS011;56625;54.322;18.582;2023-07-22T07:15:48;5.20;;;1.90;;
69434;SDS011;56625;54.322;18.582;2023-07-22T07:18:16;6.10;;;2.00;;
69434;SDS011;56625;54.322;18.582;2023-07-22T07:20:45;6.20;;;2.20;;
69434;SDS011;56625;54.322;18.582;2023-07-22T07:23:13;5.10;;;1.90;;
69434;SDS011;56625;54.322;18.582;2023-07-22T07:25:44;5.60;;;2.00;;
69434;SDS011;56625;54.322;18.582;2023-07-22T07:28:12;7.70;;;2.40;;
69434;SDS011;56625;54.322;18.582;2023-07-22T07:30:42;5.00;;;2.00;;
69434;SDS011;56625;54.322;18.582;2023-07-22T07:33:10;5.50;;;2.10;;
69434;SDS011;56625;54.322;18.582;2023-07-22T07:35:38;5.20;;;2.00;;
69434;SDS011;56625;54.322;18.582;2023-07-22T07:38:06;4.80;;;1.60;;
69434;SDS011;56625;54.322;18.582;2023-07-22T07:40:34;5.40;;;1.80;;
69434;SDS011;56625;54.322;18.582;2023-07-22T07:43:02;5.80;;;1.70;;
69434;SDS011;56625;54.322;18.582;2023-07-22T07:45:30;4.70;;;1.80;;
69434;SDS011;56625;54.322;18.582;2023-07-22T07:47:59;6.00;;;1.50;;
69434;SDS011;56625;54.322;18.582;2023-07-22T07:50:27;4.50;;;1.50;;
69434;SDS011;56625;54.322;18.582;2023-07-22T07:52:55;5.40;;;1.70;;
69434;SDS011;56625;54.322;18.582;2023-07-22T07:55:23;4.70;;;1.60;;
69434;SDS011;56625;54.322;18.582;2023-07-22T07:57:53;4.20;;;1.40;;
69434;SDS011;56625;54.322;18.582;2023-07-22T08:00:21;5.50;;;1.90;;
69434;SDS011;56625;54.322;18.582;2023-07-22T08:02:49;5.10;;;1.50;;
69434;SDS011;56625;54.322;18.582;2023-07-22T08:05:17;5.00;;;1.60;;
69434;SDS011;56625;54.322;18.582;2023-07-22T08:07:45;5.30;;;1.70;;
69434;SDS011;56625;54.322;18.582;2023-07-22T08:10:13;5.60;;;1.70;;
69434;SDS011;56625;54.322;18.582;2023-07-22T08:12:41;5.40;;;1.80;;
69434;SDS011;56625;54.322;18.582;2023-07-22T08:15:09;4.80;;;2.00;;
69434;SDS011;56625;54.322;18.582;2023-07-22T08:17:37;5.60;;;1.90;;
69434;SDS011;56625;54.322;18.582;2023-07-22T08:20:06;5.50;;;2.00;;
69434;SDS011;56625;54.322;18.582;2023-07-22T08:22:35;5.90;;;2.60;;
69434;SDS011;56625;54.322;18.582;2023-07-22T08:25:04;6.00;;;2.50;;
69434;SDS011;56625;54.322;18.582;2023-07-22T08:27:32;5.30;;;2.00;;
69434;SDS011;56625;54.322;18.582;2023-07-22T08:30:00;6.20;;;2.50;;
69434;SDS011;56625;54.322;18.582;2023-07-22T08:32:28;6.20;;;2.10;;
69434;SDS011;56625;54.322;18.582;2023-07-22T08:34:56;7.30;;;2.60;;
69434;SDS011;56625;54.322;18.582;2023-07-22T08:37:24;5.80;;;2.20;;
69434;SDS011;56625;54.322;18.582;2023-07-22T08:39:52;7.90;;;2.30;;
69434;SDS011;56625;54.322;18.582;2023-07-22T08:42:21;5.70;;;2.10;;
69434;SDS011;56625;54.322;18.582;2023-07-22T08:44:54;5.50;;;2.30;;
69434;SDS011;56625;54.322;18.582;2023-07-22T08:47:28;6.10;;;2.00;;
69434;SDS011;56625;54.322;18.582;2023-07-22T08:50:01;5.60;;;2.10;;
69434;SDS011;56625;54.322;18.582;2023-07-22T08:52:34;5.90;;;1.90;;
69434;SDS011;56625;54.322;18.582;2023-07-22T08:55:02;5.70;;;2.10;;
69434;SDS011;56625;54.322;18.582;2023-07-22T08:57:31;5.60;;;2.20;;
69434;SDS011;56625;54.322;18.582;2023-07-22T09:00:00;6.20;;;2.10;;
69434;SDS011;56625;54.322;18.582;2023-07-22T09:02:33;3.50;;;1.40;;
69434;SDS011;56625;54.322;18.582;2023-07-22T09:05:09;5.40;;;2.00;;
69434;SDS011;56625;54.322;18.582;2023-07-22T09:07:37;6.70;;;2.30;;
69434;SDS011;56625;54.322;18.582;2023-07-22T09:10:08;10.10;;;2.80;;
69434;SDS011;56625;54.322;18.582;2023-07-22T09:12:36;6.30;;;2.50;;
69434;SDS011;56625;54.322;18.582;2023-07-22T09:15:09;5.60;;;2.30;;
69434;SDS011;56625;54.322;18.582;2023-07-22T09:17:40;7.90;;;2.60;;
69434;SDS011;56625;54.322;18.582;2023-07-22T09:20:08;5.60;;;2.20;;
69434;SDS011;56625;54.322;18.582;2023-07-22T09:22:46;5.90;;;2.90;;
69434;SDS011;56625;54.322;18.582;2023-07-22T09:25:29;7.50;;;2.90;;
69434;SDS011;56625;54.322;18.582;2023-07-22T09:27:59;7.10;;;3.10;;
69434;SDS011;56625;54.322;18.582;2023-07-22T09:30:38;7.10;;;3.20;;
69434;SDS011;56625;54.322;18.582;2023-07-22T09:33:20;8.40;;;3.60;;
69434;SDS011;56625;54.322;18.582;2023-07-22T09:35:50;10.30;;;3.30;;
69434;SDS011;56625;54.322;18.582;2023-07-22T09:38:25;8.10;;;3.20;;
69434;SDS011;56625;54.322;18.582;2023-07-22T09:40:53;6.20;;;2.20;;
69434;SDS011;56625;54.322;18.582;2023-07-22T09:43:23;6.30;;;2.30;;
69434;SDS011;56625;54.322;18.582;2023-07-22T09:45:51;3.90;;;1.30;;
69434;SDS011;56625;54.322;18.582;2023-07-22T09:48:21;5.40;;;1.70;;
69434;SDS011;56625;54.322;18.582;2023-07-22T09:50:57;4.80;;;1.50;;
69434;SDS011;56625;54.322;18.582;2023-07-22T09:53:26;5.00;;;1.90;;
69434;SDS011;56625;54.322;18.582;2023-07-22T09:55:55;4.60;;;1.40;;
69434;SDS011;56625;54.322;18.582;2023-07-22T09:58:24;4.70;;;1.50;;
69434;SDS011;56625;54.322;18.582;2023-07-22T10:00:55;4.80;;;1.50;;
69434;SDS011;56625;54.322;18.582;2023-07-22T10:03:29;5.00;;;1.20;;
69434;SDS011;56625;54.322;18.582;2023-07-22T10:06:00;3.50;;;1.20;;
69434;SDS011;56625;54.322;18.582;2023-07-22T10:08:34;5.70;;;1.40;;
69434;SDS011;56625;54.322;18.582;2023-07-22T10:11:08;4.10;;;1.30;;
69434;SDS011;56625;54.322;18.582;2023-07-22T10:13:38;3.80;;;1.00;;
69434;SDS011;56625;54.322;18.582;2023-07-22T10:16:07;4.50;;;1.10;;
69434;SDS011;56625;54.322;18.582;2023-07-22T10:18:35;4.00;;;1.00;;
69434;SDS011;56625;54.322;18.582;2023-07-22T10:21:05;3.20;;;1.10;;
69434;SDS011;56625;54.322;18.582;2023-07-22T10:23:33;3.90;;;1.10;;
69434;SDS011;56625;54.322;18.582;2023-07-22T10:26:01;3.50;;;1.10;;
69434;SDS011;56625;54.322;18.582;2023-07-22T10:28:31;3.80;;;1.10;;
69434;SDS011;56625;54.322;18.582;2023-07-22T10:31:00;4.10;;;1.50;;
69434;SDS011;56625;54.322;18.582;2023-07-22T10:33:28;4.20;;;0.90;;
69434;SDS011;56625;54.322;18.582;2023-07-22T10:38:35;3.80;;;1.20;;
69434;SDS011;56625;54.322;18.582;2023-07-22T10:41:14;3.90;;;1.30;;
69434;SDS011;56625;54.322;18.582;2023-07-22T10:43:55;4.10;;;1.20;;
69434;SDS011;56625;54.322;18.582;2023-07-22T10:46:34;5.10;;;1.20;;
69434;SDS011;56625;54.322;18.582;2023-07-22T10:49:10;3.50;;;1.20;;
69434;SDS011;56625;54.322;18.582;2023-07-22T10:51:48;4.40;;;1.20;;
69434;SDS011;56625;54.322;18.582;2023-07-22T10:54:34;3.60;;;1.10;;
69434;SDS011;56625;54.322;18.582;2023-07-22T10:57:23;4.30;;;1.00;;
69434;SDS011;56625;54.322;18.582;2023-07-22T10:59:54;4.80;;;1.40;;
69434;SDS011;56625;54.322;18.582;2023-07-22T11:02:28;4.40;;;1.30;;
69434;SDS011;56625;54.322;18.582;2023-07-22T11:04:58;3.80;;;1.20;;
69434;SDS011;56625;54.322;18.582;2023-07-22T11:07:42;3.90;;;1.30;;
69434;SDS011;56625;54.322;18.582;2023-07-22T11:10:15;5.10;;;1.10;;
69434;SDS011;56625;54.322;18.582;2023-07-22T11:12:47;4.90;;;1.30;;
69434;SDS011;56625;54.322;18.582;2023-07-22T11:15:16;4.60;;;1.30;;
69434;SDS011;56625;54.322;18.582;2023-07-22T11:17:45;4.30;;;1.10;;
69434;SDS011;56625;54.322;18.582;2023-07-22T11:20:13;3.20;;;1.00;;
69434;SDS011;56625;54.322;18.582;2023-07-22T11:22:42;4.20;;;1.50;;
69434;SDS011;56625;54.322;18.582;2023-07-22T11:25:17;3.80;;;1.10;;
69434;SDS011;56625;54.322;18.582;2023-07-22T11:27:46;4.90;;;1.10;;
69434;SDS011;56625;54.322;18.582;2023-07-22T11:30:14;3.70;;;0.90;;
69434;SDS011;56625;54.322;18.582;2023-07-22T11:32:42;6.30;;;1.30;;
69434;SDS011;56625;54.322;18.582;2023-07-22T11:35:11;4.90;;;1.10;;
69434;SDS011;56625;54.322;18.582;2023-07-22T11:37:39;3.10;;;1.10;;
69434;SDS011;56625;54.322;18.582;2023-07-22T11:40:11;4.90;;;1.10;;
69434;SDS011;56625;54.322;18.582;2023-07-22T11:42:42;4.70;;;1.10;;
69434;SDS011;56625;54.322;18.582;2023-07-22T11:45:12;3.30;;;0.80;;
69434;SDS011;56625;54.322;18.582;2023-07-22T11:47:40;3.90;;;1.00;;
69434;SDS011;56625;54.322;18.582;2023-07-22T11:50:08;6.10;;;1.10;;
69434;SDS011;56625;54.322;18.582;2023-07-22T11:52:37;4.90;;;1.00;;
69434;SDS011;56625;54.322;18.582;2023-07-22T11:55:05;3.50;;;1.10;;
69434;SDS011;56625;54.322;18.582;2023-07-22T11:57:33;4.30;;;1.00;;
69434;SDS011;56625;54.322;18.582;2023-07-22T12:00:01;3.90;;;0.90;;
69434;SDS011;56625;54.322;18.582;2023-07-22T12:02:29;3.00;;;0.80;;
69434;SDS011;56625;54.322;18.582;2023-07-22T12:05:01;2.90;;;0.80;;
69434;SDS011;56625;54.322;18.582;2023-07-22T12:07:32;2.10;;;0.80;;
69434;SDS011;56625;54.322;18.582;2023-07-22T12:10:04;5.20;;;0.90;;
69434;SDS011;56625;54.322;18.582;2023-07-22T12:12:45;3.40;;;1.00;;
69434;SDS011;56625;54.322;18.582;2023-07-22T12:15:16;3.40;;;0.80;;
69434;SDS011;56625;54.322;18.582;2023-07-22T12:17:54;4.00;;;1.00;;
69434;SDS011;56625;54.322;18.582;2023-07-22T12:20:25;2.50;;;0.80;;
69434;SDS011;56625;54.322;18.582;2023-07-22T12:22:59;4.80;;;0.90;;
69434;SDS011;56625;54.322;18.582;2023-07-22T12:25:27;3.50;;;0.70;;
69434;SDS011;56625;54.322;18.582;2023-07-22T12:28:00;2.20;;;0.70;;
69434;SDS011;56625;54.322;18.582;2023-07-22T12:30:28;10.40;;;1.50;;
69434;SDS011;56625;54.322;18.582;2023-07-22T12:32:56;5.10;;;0.70;;
69434;SDS011;56625;54.322;18.582;2023-07-22T12:35:24;5.60;;;1.00;;
69434;SDS011;56625;54.322;18.582;2023-07-22T12:37:52;3.20;;;1.00;;
69434;SDS011;56625;54.322;18.582;2023-07-22T12:40:19;4.60;;;1.10;;
69434;SDS011;56625;54.322;18.582;2023-07-22T12:42:48;4.60;;;1.00;;
69434;SDS011;56625;54.322;18.582;2023-07-22T12:45:16;5.70;;;1.40;;
69434;SDS011;56625;54.322;18.582;2023-07-22T12:47:44;5.10;;;1.20;;
69434;SDS011;56625;54.322;18.582;2023-07-22T12:50:12;3.40;;;0.80;;
69434;SDS011;56625;54.322;18.582;2023-07-22T12:52:40;3.90;;;0.90;;
69434;SDS011;56625;54.322;18.582;2023-07-22T12:55:09;2.80;;;0.60;;
69434;SDS011;56625;54.322;18.582;2023-07-22T12:57:37;3.90;;;1.00;;
69434;SDS011;56625;54.322;18.582;2023-07-22T13:00:05;4.00;;;0.90;;
69434;SDS011;56625;54.322;18.582;2023-07-22T13:02:37;4.60;;;1.20;;
69434;SDS011;56625;54.322;18.582;2023-07-22T13:05:06;5.90;;;1.30;;
69434;SDS011;56625;54.322;18.582;2023-07-22T13:07:34;3.30;;;0.80;;
69434;SDS011;56625;54.322;18.582;2023-07-22T13:10:06;3.50;;;0.80;;
69434;SDS011;56625;54.322;18.582;2023-07-22T13:12:38;3.90;;;1.10;;
69434;SDS011;56625;54.322;18.582;2023-07-22T13:15:07;3.70;;;1.00;;
69434;SDS011;56625;54.322;18.582;2023-07-22T13:17:35;3.50;;;0.90;;
69434;SDS011;56625;54.322;18.582;2023-07-22T13:20:05;4.20;;;1.00;;
69434;SDS011;56625;54.322;18.582;2023-07-22T13:22:35;4.30;;;1.00;;
69434;SDS011;56625;54.322;18.582;2023-07-22T13:25:05;4.70;;;1.00;;
69434;SDS011;56625;54.322;18.582;2023-07-22T13:27:34;4.40;;;1.10;;
69434;SDS011;56625;54.322;18.582;2023-07-22T13:30:03;4.80;;;1.20;;
69434;SDS011;56625;54.322;18.582;2023-07-22T13:32:33;3.90;;;1.00;;
69434;SDS011;56625;54.322;18.582;2023-07-22T13:35:00;3.80;;;0.70;;
69434;SDS011;56625;54.322;18.582;2023-07-22T13:37:28;4.80;;;0.70;;
69434;SDS011;56625;54.322;18.582;2023-07-22T13:39:56;4.30;;;0.90;;
69434;SDS011;56625;54.322;18.582;2023-07-22T13:42:25;3.50;;;1.00;;
69434;SDS011;56625;54.322;18.582;2023-07-22T13:44:53;3.10;;;1.00;;
69434;SDS011;56625;54.322;18.582;2023-07-22T13:47:21;5.40;;;1.10;;
69434;SDS011;56625;54.322;18.582;2023-07-22T13:49:49;3.30;;;0.90;;
69434;SDS011;56625;54.322;18.582;2023-07-22T13:52:17;5.50;;;1.20;;
69434;SDS011;56625;54.322;18.582;2023-07-22T13:54:45;4.90;;;1.00;;
69434;SDS011;56625;54.322;18.582;2023-07-22T13:57:13;4.00;;;1.00;;
69434;SDS011;56625;54.322;18.582;2023-07-22T13:59:41;3.10;;;0.70;;
69434;SDS011;56625;54.322;18.582;2023-07-22T14:02:10;4.40;;;1.00;;
69434;SDS011;56625;54.322;18.582;2023-07-22T14:04:38;5.20;;;1.10;;
69434;SDS011;56625;54.322;18.582;2023-07-22T14:07:06;3.80;;;1.00;;
69434;SDS011;56625;54.322;18.582;2023-07-22T14:09:34;3.60;;;1.00;;
69434;SDS011;56625;54.322;18.582;2023-07-22T14:12:02;4.20;;;0.70;;
69434;SDS011;56625;54.322;18.582;2023-07-22T14:14:30;4.00;;;0.90;;
69434;SDS011;56625;54.322;18.582;2023-07-22T14:16:58;3.80;;;1.00;;
69434;SDS011;56625;54.322;18.582;2023-07-22T14:19:26;3.50;;;1.00;;
69434;SDS011;56625;54.322;18.582;2023-07-22T14:21:59;4.50;;;0.80;;
69434;SDS011;56625;54.322;18.582;2023-07-22T14:24:27;2.50;;;0.70;;
69434;SDS011;56625;54.322;18.582;2023-07-22T14:26:55;2.80;;;0.80;;
69434;SDS011;56625;54.322;18.582;2023-07-22T14:29:23;2.40;;;0.50;;
69434;SDS011;56625;54.322;18.582;2023-07-22T14:31:55;4.80;;;1.00;;
69434;SDS011;56625;54.322;18.582;2023-07-22T14:34:25;4.30;;;0.90;;
69434;SDS011;56625;54.322;18.582;2023-07-22T14:36:54;3.10;;;0.90;;
69434;SDS011;56625;54.322;18.582;2023-07-22T14:39:22;4.80;;;0.80;;
69434;SDS011;56625;54.322;18.582;2023-07-22T14:41:50;4.60;;;0.90;;
69434;SDS011;56625;54.322;18.582;2023-07-22T14:44:18;3.50;;;0.90;;
69434;SDS011;56625;54.322;18.582;2023-07-22T14:46:47;5.40;;;1.00;;
69434;SDS011;56625;54.322;18.582;2023-07-22T14:49:15;4.00;;;0.90;;